Terminal Aerodrome Forecast
Issued by NWS

Home | Current Version | Previous Version | Graphics & Text | Print | Product List | Glossary On
Versions: 1 2 3 4 5 6 7 8 9 10 11 12 13 14 15 16 17 18 19 20 21 22 23 24 25
909
FTUS43 KLOT 081517 AAA
TAFORD
TAF AMD
KORD 081517Z 0815/0918 24013G19KT P6SM SCT080 BKN100
     FM090000 24009KT P6SM SCT040 BKN100
     FM090400 23010KT 6SM -SN OVC060
     FM090500 23007KT 3SM -SN OVC025
      TEMPO 0905/0909 1SM -SN SCT009 OVC015
     FM091000 29010KT 4SM -SHSN OVC018
     FM091200 32015G23KT P6SM BKN035=

USA.gov is the U.S. government's official web portal to all federal, state and local government web resources and services.